createdAt,value
2019-02-20T00:02:41.269Z,100490.17
2019-02-20T00:07:46.455Z,100484.80
2019-02-20T00:12:56.520Z,100493.39
2019-02-20T00:18:01.598Z,100499.94
2019-02-20T00:23:06.673Z,100498.27
2019-02-20T00:28:12.204Z,100503.53
2019-02-20T00:33:17.304Z,100512.19
2019-02-20T00:38:22.733Z,100504.13
2019-02-20T00:43:27.914Z,100511.50
2019-02-20T00:48:50.881Z,100511.82
2019-02-20T00:53:59.052Z,100518.06
2019-02-20T00:59:04.058Z,100518.50
2019-02-20T01:04:09.160Z,100520.14
2019-02-20T01:09:14.262Z,100528.58
2019-02-20T01:14:19.286Z,100521.70
2019-02-20T01:19:24.803Z,100525.95
2019-02-20T01:24:31.184Z,100508.78
2019-02-20T01:29:36.640Z,100515.01
2019-02-20T01:34:41.728Z,100505.95
2019-02-20T01:39:49.422Z,100503.44
2019-02-20T01:44:54.390Z,100498.58
2019-02-20T01:49:59.428Z,100507.65
2019-02-20T01:55:04.889Z,100506.47
2019-02-20T02:00:10.343Z,100510.24
2019-02-20T02:05:16.025Z,100511.23
2019-02-20T02:10:22.298Z,100514.11
2019-02-20T02:15:27.704Z,100508.48
2019-02-20T02:20:32.854Z,100508.63
2019-02-20T02:25:37.936Z,100508.59
2019-02-20T02:30:42.940Z,100501.75
2019-02-20T02:35:48.610Z,100513.17
2019-02-20T02:40:54.735Z,100517.00
2019-02-20T02:45:59.899Z,100512.88
2019-02-20T02:51:05.461Z,100516.38
2019-02-20T02:56:10.532Z,100521.84
2019-02-20T03:01:15.614Z,100524.92
2019-02-20T03:06:20.640Z,100516.53
2019-02-20T03:11:25.663Z,100515.33
2019-02-20T03:16:30.782Z,100514.30
2019-02-20T03:21:35.844Z,100509.81
2019-02-20T03:26:40.926Z,100514.64
2019-02-20T03:31:46.367Z,100518.36
2019-02-20T03:36:51.368Z,100525.96
2019-02-20T03:41:56.951Z,100531.36
2019-02-20T03:47:02.218Z,100538.20
2019-02-20T03:52:07.446Z,100542.69
2019-02-20T03:57:12.583Z,100545.17
2019-02-20T04:02:17.996Z,100540.11
2019-02-20T04:07:23.108Z,100533.78
2019-02-20T04:12:28.579Z,100534.69
2019-02-20T04:17:34.081Z,100544.10
2019-02-20T04:22:39.277Z,100550.91
2019-02-20T04:27:44.389Z,100554.58
2019-02-20T04:32:49.796Z,100552.68
2019-02-20T04:37:55.975Z,100557.85
2019-02-20T04:43:00.985Z,100560.20
2019-02-20T04:48:06.005Z,100555.84
2019-02-20T04:53:11.131Z,100551.79
2019-02-20T04:58:18.901Z,100551.64
2019-02-20T05:03:23.907Z,100551.92
2019-02-20T05:08:29.072Z,100559.63
2019-02-20T05:13:35.096Z,100557.43
2019-02-20T05:18:40.180Z,100561.69
2019-02-20T05:23:45.370Z,100562.02
2019-02-20T05:28:50.871Z,100570.73
2019-02-20T05:33:55.894Z,100569.67
2019-02-20T05:39:01.739Z,100561.81
2019-02-20T05:44:08.473Z,100566.95
2019-02-20T05:49:13.557Z,100558.11
2019-02-20T05:54:20.055Z,100567.20
2019-02-20T05:59:25.253Z,100573.38
2019-02-20T06:04:30.286Z,100573.22
2019-02-20T06:09:35.362Z,100591.13
2019-02-20T06:14:40.766Z,100595.70
2019-02-20T06:19:45.903Z,100601.09
2019-02-20T06:24:51.435Z,100605.75
2019-02-20T06:29:57.415Z,100622.47
2019-02-20T06:35:02.530Z,100620.25
2019-02-20T06:40:08.753Z,100618.30
2019-02-20T06:45:13.857Z,100628.52
2019-02-20T06:50:21.061Z,100636.46
2019-02-20T06:55:26.236Z,100634.41
2019-02-20T07:00:31.376Z,100647.70
2019-02-20T07:05:44.893Z,100652.80
2019-02-20T07:11:30.138Z,100654.13
2019-02-20T07:17:04.148Z,100650.67
2019-02-20T07:22:34.382Z,100659.73
2019-02-20T07:28:09.902Z,100671.01
2019-02-20T07:33:15.587Z,100667.69
2019-02-20T07:38:20.775Z,100678.06
2019-02-20T07:43:26.324Z,100688.20
2019-02-20T07:48:31.431Z,100693.61
2019-02-20T07:53:36.987Z,100709.88
2019-02-20T07:58:42.597Z,100716.40
2019-02-20T08:03:47.861Z,100721.87
2019-02-20T08:08:53.405Z,100732.02
2019-02-20T08:14:03.722Z,100731.44
2019-02-20T08:19:08.850Z,100737.02
2019-02-20T08:24:18.983Z,100727.61
2019-02-20T08:29:24.098Z,100735.19
2019-02-20T08:34:29.289Z,100741.12
2019-02-20T08:39:34.531Z,100749.52
2019-02-20T08:44:42.556Z,100753.86
2019-02-20T08:49:47.645Z,100759.75
2019-02-20T08:54:56.347Z,100760.48
2019-02-20T09:00:05.703Z,100768.58
2019-02-20T09:05:12.971Z,100767.25
2019-02-20T09:10:19.202Z,100774.70
2019-02-20T09:15:24.501Z,100769.08
2019-02-20T09:20:30.191Z,100774.41
2019-02-20T09:25:41.641Z,100769.42
2019-02-20T09:30:42.650Z,100775.83
2019-02-20T09:35:48.055Z,100785.27
2019-02-20T09:40:55.044Z,100780.31
2019-02-20T09:46:00.590Z,100788.48
2019-02-20T09:51:05.818Z,100797.27
2019-02-20T09:56:11.107Z,100800.59
2019-02-20T10:01:16.237Z,100815.74
2019-02-20T10:06:20.523Z,100806.45
2019-02-20T10:11:24.814Z,100810.08
2019-02-20T10:16:29.637Z,100813.84
2019-02-20T10:21:33.714Z,100818.05
2019-02-20T10:26:38.107Z,100820.67
2019-02-20T10:31:49.142Z,100816.59
2019-02-20T10:36:53.981Z,100826.66
2019-02-20T10:41:59.303Z,100815.86
2019-02-20T10:47:04.423Z,100817.83
2019-02-20T10:52:09.905Z,100816.28
2019-02-20T10:57:15.168Z,100819.73
2019-02-20T11:02:20.565Z,100821.59
2019-02-20T11:07:25.857Z,100820.16
2019-02-20T11:12:39.061Z,100821.40
2019-02-20T11:17:44.917Z,100808.78
2019-02-20T11:22:51.194Z,100822.72
2019-02-20T11:28:07.430Z,100816.97
2019-02-20T11:33:14.857Z,100816.67
2019-02-20T11:38:20.337Z,100805.86
2019-02-20T11:43:34.629Z,100793.22
2019-02-20T11:48:42.656Z,100803.63
2019-02-20T11:53:49.269Z,100797.05
2019-02-20T11:59:01.369Z,100791.41
2019-02-20T12:04:12.246Z,100796.96
2019-02-20T12:09:19.042Z,100805.41
2019-02-20T12:14:24.834Z,100805.41
2019-02-20T12:19:42.781Z,100809.26
2019-02-20T12:24:49.526Z,100807.11
2019-02-20T12:29:57.257Z,100806.41
2019-02-20T12:35:05.154Z,100808.69
2019-02-20T12:40:11.927Z,100802.72
2019-02-20T12:45:24.411Z,100805.77
2019-02-20T12:50:30.450Z,100809.87
2019-02-20T12:55:40.681Z,100799.41
2019-02-20T13:00:57.353Z,100813.88
2019-02-20T13:06:03.451Z,100802.66
2019-02-20T13:11:09.751Z,100800.89
2019-02-20T13:16:15.272Z,100805.41
2019-02-20T13:21:23.774Z,100791.92
2019-02-20T13:26:29.464Z,100799.63
2019-02-20T13:31:34.724Z,100795.19
2019-02-20T13:36:40.189Z,100790.37
2019-02-20T13:41:45.347Z,100792.34
2019-02-20T13:46:50.759Z,100786.69
2019-02-20T13:51:57.137Z,100792.61
2019-02-20T13:57:02.534Z,100792.61
2019-02-20T14:02:08.056Z,100783.95
2019-02-20T14:07:16.309Z,100786.69
2019-02-20T14:12:22.452Z,100784.49
2019-02-20T14:17:28.341Z,100788.25
2019-02-20T14:22:34.327Z,100787.16
2019-02-20T14:28:13.254Z,100784.24
2019-02-20T14:33:22.603Z,100787.10
2019-02-20T14:38:27.865Z,100783.70
2019-02-20T14:43:33.245Z,100777.64
2019-02-20T14:48:38.624Z,100785.51
2019-02-20T14:53:44.407Z,100793.95
2019-02-20T14:58:52.889Z,100794.35
2019-02-20T15:03:58.725Z,100791.94
2019-02-20T15:09:06.034Z,100796.70
2019-02-20T15:14:13.371Z,100787.73
2019-02-20T15:19:19.753Z,100801.89
2019-02-20T15:24:25.149Z,100807.21
2019-02-20T15:29:32.521Z,100807.22
2019-02-20T15:34:39.651Z,100805.94
2019-02-20T15:39:45.391Z,100801.97
2019-02-20T15:44:50.974Z,100806.19
2019-02-20T15:49:56.411Z,100805.95
2019-02-20T15:55:04.146Z,100805.41
2019-02-20T16:00:11.498Z,100814.20
2019-02-20T16:05:16.769Z,100818.41
2019-02-20T16:10:22.444Z,100810.70
2019-02-20T16:15:27.757Z,100819.98
2019-02-20T16:20:35.171Z,100820.78
2019-02-20T16:25:45.874Z,100824.75
2019-02-20T16:30:51.381Z,100841.16
2019-02-20T16:35:57.571Z,100838.76
2019-02-20T16:41:04.770Z,100845.37
2019-02-20T16:46:10.015Z,100845.90
2019-02-20T16:51:15.337Z,100847.19
2019-02-20T16:56:20.873Z,100847.94
2019-02-20T17:01:26.464Z,100856.17
2019-02-20T17:06:31.884Z,100865.19
2019-02-20T17:11:37.257Z,100869.70
2019-02-20T17:16:42.403Z,100877.94
2019-02-20T17:21:47.559Z,100885.06
2019-02-20T17:26:53.553Z,100885.06
2019-02-20T17:31:59.070Z,100892.98
2019-02-20T17:37:04.218Z,100897.17
2019-02-20T17:42:09.350Z,100892.67
2019-02-20T17:47:14.939Z,100888.13
2019-02-20T17:52:21.473Z,100893.43
2019-02-20T17:57:26.719Z,100906.64
2019-02-20T18:02:32.193Z,100905.30
2019-02-20T18:07:38.121Z,100906.59
2019-02-20T18:12:43.393Z,100908.71
2019-02-20T18:17:48.516Z,100914.50
2019-02-20T18:22:54.411Z,100916.86
2019-02-20T18:27:59.915Z,100922.98
2019-02-20T18:33:05.432Z,100924.05
2019-02-20T18:38:10.635Z,100924.58
2019-02-20T18:43:16.055Z,100929.84
2019-02-20T18:48:25.843Z,100934.88
2019-02-20T18:53:32.084Z,100929.83
2019-02-20T18:58:38.476Z,100935.89
2019-02-20T19:03:44.217Z,100940.70
2019-02-20T19:08:56.335Z,100944.17
2019-02-20T19:14:25.974Z,100942.00
2019-02-20T19:20:03.224Z,100943.31
2019-02-20T19:25:37.329Z,100947.83
2019-02-20T19:31:26.863Z,100949.67
2019-02-20T19:37:19.164Z,100952.34
2019-02-20T19:42:49.439Z,100955.75
2019-02-20T19:48:21.965Z,100957.08
2019-02-20T19:53:48.760Z,100963.70
2019-02-20T19:59:21.714Z,100962.87
2019-02-20T20:04:56.702Z,100960.69
2019-02-20T20:10:46.472Z,100960.92
2019-02-20T20:16:24.607Z,100964.34
2019-02-20T20:22:07.854Z,100968.34
2019-02-20T20:27:46.949Z,100964.61
2019-02-20T20:33:45.589Z,100956.57
2019-02-20T20:39:15.932Z,100965.29
2019-02-20T20:44:48.120Z,100963.69
2019-02-20T20:50:46.435Z,100969.74
2019-02-20T20:56:23.511Z,100969.72
2019-02-20T21:01:39.447Z,100961.24
2019-02-20T21:07:35.337Z,100952.96
2019-02-20T21:13:23.451Z,100960.57
2019-02-20T21:19:21.468Z,100954.75
2019-02-20T21:25:01.401Z,100962.64
2019-02-20T21:30:42.815Z,100955.67
2019-02-20T21:36:14.594Z,100954.10
2019-02-20T21:42:00.326Z,100953.73
2019-02-20T21:47:40.800Z,100953.48
2019-02-20T21:52:52.362Z,100951.20
2019-02-20T21:58:23.075Z,100955.08
2019-02-20T22:03:53.725Z,100959.23
2019-02-20T22:09:27.154Z,100960.53
2019-02-20T22:14:57.704Z,100964.18
2019-02-20T22:20:47.198Z,100965.50
2019-02-20T22:26:08.975Z,100969.16
2019-02-20T22:32:00.565Z,100960.87
2019-02-20T22:37:34.516Z,100961.34
2019-02-20T22:43:32.758Z,100963.38
2019-02-20T22:49:18.016Z,100959.77
2019-02-20T22:55:06.981Z,100962.56
2019-02-20T23:01:08.034Z,100967.56
2019-02-20T23:07:10.740Z,100966.74
2019-02-20T23:12:54.628Z,100963.28
2019-02-20T23:17:59.805Z,100966.38
2019-02-20T23:23:23.965Z,100969.64
2019-02-20T23:28:33.711Z,100976.72
2019-02-20T23:33:39.195Z,100983.94
2019-02-20T23:38:44.514Z,100984.22
2019-02-20T23:43:52.149Z,100988.01
2019-02-20T23:49:01.510Z,100999.44
2019-02-20T23:54:10.150Z,101003.84
2019-02-20T23:59:15.347Z,101002.31
